Aviation Digital Data Service (ADDS)

Output produced by TAFs form (0802 UTC 14 December 2017)
found at http://aviationweather.gov/adds/tafs/
 
KJQF 140750Z AUTO 22005KT 10SM CLR 03/M08 A2972 RMK AO2